sensor_id;sensor_type;location;lat;lon;timestamp;P1;P2;P0
55076;PMS7003;40971;44.702;11.030;2023-09-08T00:03:59;21.67;20.67;15.33
55076;PMS7003;40971;44.702;11.030;2023-09-08T00:14:01;21.33;21.33;16.00
55076;PMS7003;40971;44.702;11.030;2023-09-08T00:24:04;18.00;16.00;14.50
55076;PMS7003;40971;44.702;11.030;2023-09-08T00:34:06;20.67;20.33;15.00
55076;PMS7003;40971;44.702;11.030;2023-09-08T00:44:07;23.50;22.00;17.00
55076;PMS7003;40971;44.702;11.030;2023-09-08T00:54:11;25.67;25.67;17.67
55076;PMS7003;40971;44.702;11.030;2023-09-08T01:04:13;28.50;28.50;20.00
55076;PMS7003;40971;44.702;11.030;2023-09-08T01:14:18;35.33;33.67;23.11
55076;PMS7003;40971;44.702;11.030;2023-09-08T01:34:48;31.00;30.67;22.67
55076;PMS7003;40971;44.702;11.030;2023-09-08T01:44:53;34.56;34.56;21.44
55076;PMS7003;40971;44.702;11.030;2023-09-08T01:54:55;36.00;34.33;20.67
55076;PMS7003;40971;44.702;11.030;2023-09-08T02:04:58;40.00;39.00;25.00
55076;PMS7003;40971;44.702;11.030;2023-09-08T02:15:00;31.00;30.67;23.33
55076;PMS7003;40971;44.702;11.030;2023-09-08T02:25:02;34.33;33.33;22.33
55076;PMS7003;40971;44.702;11.030;2023-09-08T02:35:06;31.50;31.25;24.63
55076;PMS7003;40971;44.702;11.030;2023-09-08T02:45:09;37.67;37.67;25.00
55076;PMS7003;40971;44.702;11.030;2023-09-08T02:55:11;36.40;33.60;24.20
55076;PMS7003;40971;44.702;11.030;2023-09-08T03:05:13;42.33;39.33;25.00
55076;PMS7003;40971;44.702;11.030;2023-09-08T03:15:16;38.67;37.00;25.00
55076;PMS7003;40971;44.702;11.030;2023-09-08T03:25:18;35.33;34.33;25.00
55076;PMS7003;40971;44.702;11.030;2023-09-08T03:35:23;44.22;38.44;27.11
55076;PMS7003;40971;44.702;11.030;2023-09-08T03:45:25;38.00;37.67;26.33
55076;PMS7003;40971;44.702;11.030;2023-09-08T03:55:26;41.67;38.00;25.00
55076;PMS7003;40971;44.702;11.030;2023-09-08T04:05:28;39.00;37.40;26.80
55076;PMS7003;40971;44.702;11.030;2023-09-08T04:15:30;32.33;32.00;24.67
55076;PMS7003;40971;44.702;11.030;2023-09-08T04:25:32;35.75;33.75;25.00
55076;PMS7003;40971;44.702;11.030;2023-09-08T04:35:35;41.75;36.25;25.00
55076;PMS7003;40971;44.702;11.030;2023-09-08T04:45:40;38.33;37.33;24.67
55076;PMS7003;40971;44.702;11.030;2023-09-08T04:55:43;52.33;45.33;29.00
55076;PMS7003;40971;44.702;11.030;2023-09-08T05:05:47;43.67;40.33;28.00
55076;PMS7003;40971;44.702;11.030;2023-09-08T05:15:49;44.00;37.67;27.00
55076;PMS7003;40971;44.702;11.030;2023-09-08T05:25:54;38.67;38.33;25.67
55076;PMS7003;40971;44.702;11.030;2023-09-08T05:35:56;43.00;39.80;28.00
55076;PMS7003;40971;44.702;11.030;2023-09-08T05:45:57;40.67;38.00;25.00
55076;PMS7003;40971;44.702;11.030;2023-09-08T05:55:59;39.25;35.25;24.25
55076;PMS7003;40971;44.702;11.030;2023-09-08T06:06:01;44.33;38.33;26.00
55076;PMS7003;40971;44.702;11.030;2023-09-08T06:16:02;53.00;45.60;31.40
55076;PMS7003;40971;44.702;11.030;2023-09-08T06:26:05;65.00;54.00;36.00
55076;PMS7003;40971;44.702;11.030;2023-09-08T06:36:07;53.25;44.00;29.00
55076;PMS7003;40971;44.702;11.030;2023-09-08T06:46:09;43.33;39.33;25.67
55076;PMS7003;40971;44.702;11.030;2023-09-08T06:56:11;41.00;37.67;27.33
55076;PMS7003;40971;44.702;11.030;2023-09-08T07:06:12;37.00;35.00;24.00
55076;PMS7003;40971;44.702;11.030;2023-09-08T07:16:14;34.75;34.00;24.25
55076;PMS7003;40971;44.702;11.030;2023-09-08T07:26:17;29.75;29.25;21.75
55076;PMS7003;40971;44.702;11.030;2023-09-08T07:36:20;28.67;28.67;22.00
55076;PMS7003;40971;44.702;11.030;2023-09-08T07:46:22;27.00;26.00;19.25
55076;PMS7003;40971;44.702;11.030;2023-09-08T07:56:24;23.00;22.00;19.00
55076;PMS7003;40971;44.702;11.030;2023-09-08T08:06:26;22.67;22.67;15.33
55076;PMS7003;40971;44.702;11.030;2023-09-08T08:16:29;20.67;20.67;16.00
55076;PMS7003;40971;44.702;11.030;2023-09-08T08:26:31;20.67;18.67;16.00
55076;PMS7003;40971;44.702;11.030;2023-09-08T08:36:35;20.67;20.00;13.33
55076;PMS7003;40971;44.702;11.030;2023-09-08T08:46:37;16.33;15.00;12.33
55076;PMS7003;40971;44.702;11.030;2023-09-08T08:56:40;17.50;17.50;13.50
55076;PMS7003;40971;44.702;11.030;2023-09-08T09:06:42;16.50;16.50;13.50
55076;PMS7003;40971;44.702;11.030;2023-09-08T09:16:46;19.25;17.88;13.75
55076;PMS7003;40971;44.702;11.030;2023-09-08T09:26:51;16.00;16.00;13.00
55076;PMS7003;40971;44.702;11.030;2023-09-08T09:36:54;14.00;14.00;12.00
55076;PMS7003;40971;44.702;11.030;2023-09-08T09:46:56;20.00;18.67;12.67
55076;PMS7003;40971;44.702;11.030;2023-09-08T09:56:58;18.67;18.67;15.00
55076;PMS7003;40971;44.702;11.030;2023-09-08T10:07:02;18.67;18.67;15.33
55076;PMS7003;40971;44.702;11.030;2023-09-08T10:17:05;22.67;19.00;15.33
55076;PMS7003;40971;44.702;11.030;2023-09-08T10:27:10;19.00;18.00;15.00
55076;PMS7003;40971;44.702;11.030;2023-09-08T10:37:19;24.00;23.67;17.33
55076;PMS7003;40971;44.702;11.030;2023-09-08T10:47:26;19.00;19.00;15.00
55076;PMS7003;40971;44.702;11.030;2023-09-08T10:57:37;27.00;24.50;16.50
55076;PMS7003;40971;44.702;11.030;2023-09-08T11:07:39;22.25;21.50;17.25
55076;PMS7003;40971;44.702;11.030;2023-09-08T11:17:42;21.67;21.00;19.00
55076;PMS7003;40971;44.702;11.030;2023-09-08T11:27:47;22.67;22.67;16.33
55076;PMS7003;40971;44.702;11.030;2023-09-08T11:37:52;23.33;23.33;15.67
55076;PMS7003;40971;44.702;11.030;2023-09-08T11:47:56;17.00;17.00;14.67
55076;PMS7003;40971;44.702;11.030;2023-09-08T11:57:58;19.67;19.67;15.00
55076;PMS7003;40971;44.702;11.030;2023-09-08T12:08:03;24.50;24.50;17.00
55076;PMS7003;40971;44.702;11.030;2023-09-08T12:18:08;19.00;19.00;14.00
55076;PMS7003;40971;44.702;11.030;2023-09-08T12:28:15;18.67;18.67;13.67
55076;PMS7003;40971;44.702;11.030;2023-09-08T12:38:19;18.00;16.00;13.00
55076;PMS7003;40971;44.702;11.030;2023-09-08T12:48:21;18.33;18.33;15.00
55076;PMS7003;40971;44.702;11.030;2023-09-08T12:58:26;17.89;17.89;14.33
55076;PMS7003;40971;44.702;11.030;2023-09-08T13:08:29;15.00;15.00;12.67
55076;PMS7003;40971;44.702;11.030;2023-09-08T13:18:30;20.00;20.00;13.67
55076;PMS7003;40971;44.702;11.030;2023-09-08T13:28:36;15.00;15.00;13.50
55076;PMS7003;40971;44.702;11.030;2023-09-08T13:38:41;18.88;18.13;13.50
55076;PMS7003;40971;44.702;11.030;2023-09-08T13:48:42;16.50;16.50;13.00
55076;PMS7003;40971;44.702;11.030;2023-09-08T13:58:44;17.00;16.33;13.00
55076;PMS7003;40971;44.702;11.030;2023-09-08T14:08:46;19.00;19.00;14.00
55076;PMS7003;40971;44.702;11.030;2023-09-08T14:18:48;17.33;17.33;13.67
55076;PMS7003;40971;44.702;11.030;2023-09-08T14:28:49;19.33;18.67;13.00
55076;PMS7003;40971;44.702;11.030;2023-09-08T14:38:54;19.78;17.89;14.67
55076;PMS7003;40971;44.702;11.030;2023-09-08T14:48:57;19.00;18.00;15.00
55076;PMS7003;40971;44.702;11.030;2023-09-08T14:58:59;17.33;17.33;14.00
55076;PMS7003;40971;44.702;11.030;2023-09-08T15:09:00;16.33;16.00;13.00
55076;PMS7003;40971;44.702;11.030;2023-09-08T15:19:02;18.00;18.00;13.67
55076;PMS7003;40971;44.702;11.030;2023-09-08T15:29:06;17.13;17.13;14.13
55076;PMS7003;40971;44.702;11.030;2023-09-08T15:39:09;19.00;19.00;17.00
55076;PMS7003;40971;44.702;11.030;2023-09-08T15:49:11;21.75;20.75;14.00
55076;PMS7003;40971;44.702;11.030;2023-09-08T15:59:14;19.33;18.33;14.00
55076;PMS7003;40971;44.702;11.030;2023-09-08T16:09:16;18.00;18.00;13.00
55076;PMS7003;40971;44.702;11.030;2023-09-08T16:19:19;17.33;17.33;14.33
55076;PMS7003;40971;44.702;11.030;2023-09-08T16:29:21;27.75;26.75;19.75
55076;PMS7003;40971;44.702;11.030;2023-09-08T16:39:23;15.00;15.00;11.50
55076;PMS7003;40971;44.702;11.030;2023-09-08T16:49:24;15.67;15.67;12.33
55076;PMS7003;40971;44.702;11.030;2023-09-08T16:59:28;17.38;16.50;13.25
55076;PMS7003;40971;44.702;11.030;2023-09-08T17:09:29;14.50;14.50;13.00
55076;PMS7003;40971;44.702;11.030;2023-09-08T17:19:33;15.63;15.63;12.50
55076;PMS7003;40971;44.702;11.030;2023-09-08T17:29:34;15.00;15.00;11.00
55076;PMS7003;40971;44.702;11.030;2023-09-08T17:39:38;15.13;15.13;12.13
55076;PMS7003;40971;44.702;11.030;2023-09-08T17:49:40;18.00;16.00;12.00
55076;PMS7003;40971;44.702;11.030;2023-09-08T17:59:41;16.33;16.33;11.00
55076;PMS7003;40971;44.702;11.030;2023-09-08T18:09:45;16.25;15.38;12.88
55076;PMS7003;40971;44.702;11.030;2023-09-08T18:19:47;19.33;15.67;12.00
55076;PMS7003;40971;44.702;11.030;2023-09-08T18:29:49;15.67;15.67;13.00
55076;PMS7003;40971;44.702;11.030;2023-09-08T18:39:50;17.50;15.00;13.50
55076;PMS7003;40971;44.702;11.030;2023-09-08T18:49:51;19.00;16.00;12.00
55076;PMS7003;40971;44.702;11.030;2023-09-08T18:59:53;20.00;18.50;15.00
55076;PMS7003;40971;44.702;11.030;2023-09-08T19:09:54;16.00;16.00;13.00
55076;PMS7003;40971;44.702;11.030;2023-09-08T19:19:55;16.67;16.67;11.33
55076;PMS7003;40971;44.702;11.030;2023-09-08T19:29:57;17.20;17.20;14.60
55076;PMS7003;40971;44.702;11.030;2023-09-08T19:39:59;18.00;18.00;14.00
55076;PMS7003;40971;44.702;11.030;2023-09-08T19:50:04;18.00;17.75;14.75
55076;PMS7003;40971;44.702;11.030;2023-09-08T20:00:06;14.00;14.00;9.00
55076;PMS7003;40971;44.702;11.030;2023-09-08T20:10:08;20.40;19.20;14.20
55076;PMS7003;40971;44.702;11.030;2023-09-08T20:20:11;20.00;20.00;15.00
55076;PMS7003;40971;44.702;11.030;2023-09-08T20:30:15;18.63;18.63;14.25
55076;PMS7003;40971;44.702;11.030;2023-09-08T20:40:19;18.50;18.50;14.75
55076;PMS7003;40971;44.702;11.030;2023-09-08T20:50:20;16.00;16.00;13.00
55076;PMS7003;40971;44.702;11.030;2023-09-08T21:00:24;22.50;20.50;17.00
55076;PMS7003;40971;44.702;11.030;2023-09-08T21:10:28;20.25;19.00;13.38
55076;PMS7003;40971;44.702;11.030;2023-09-08T21:20:30;22.00;19.60;14.80
55076;PMS7003;40971;44.702;11.030;2023-09-08T21:30:32;21.00;21.00;17.00
55076;PMS7003;40971;44.702;11.030;2023-09-08T21:40:37;22.67;21.67;16.00
55076;PMS7003;40971;44.702;11.030;2023-09-08T21:50:39;20.00;18.50;16.00
55076;PMS7003;40971;44.702;11.030;2023-09-08T22:00:40;21.67;18.67;16.00
55076;PMS7003;40971;44.702;11.030;2023-09-08T22:10:42;24.00;22.00;16.50
55076;PMS7003;40971;44.702;11.030;2023-09-08T22:20:43;23.00;22.67;19.33
55076;PMS7003;40971;44.702;11.030;2023-09-08T22:30:47;22.33;20.67;16.00
55076;PMS7003;40971;44.702;11.030;2023-09-08T22:40:48;26.50;24.50;19.00
55076;PMS7003;40971;44.702;11.030;2023-09-08T22:50:49;26.00;25.00;17.00
55076;PMS7003;40971;44.702;11.030;2023-09-08T23:00:51;33.67;32.33;24.00
55076;PMS7003;40971;44.702;11.030;2023-09-08T23:10:54;28.00;25.00;20.67
55076;PMS7003;40971;44.702;11.030;2023-09-08T23:20:56;31.67;30.67;21.33
55076;PMS7003;40971;44.702;11.030;2023-09-08T23:30:58;28.00;26.33;21.67
55076;PMS7003;40971;44.702;11.030;2023-09-08T23:41:01;38.67;36.67;26.00
55076;PMS7003;40971;44.702;11.030;2023-09-08T23:51:03;45.67;41.00;28.33
